Time;durP1;ratioP1;P1;durP2;ratioP2;P2;SDS_P1;SDS_P2;PMS_P1;PMS_P2;Temp;Humidity;BMP_temperature;BMP_pressure;BME280_temperature;BME280_humidity;BME280_pressure;Samples;Min_cycle;Max_cycle;Signal;HPM_P1;HPM_P2
2022/05/12 00:02:05;;;;;;;5.45;3.10;;;19.60;64.50;;;;;;5067651;28;20028;-72
2022/05/12 00:04:33;;;;;;;4.10;2.95;;;19.60;64.70;;;;;;5071364;28;20025;-72
2022/05/12 00:06:59;;;;;;;4.38;3.00;;;19.50;64.50;;;;;;5068355;28;20021;-72
2022/05/12 00:09:31;;;;;;;4.68;2.70;;;19.50;65.10;;;;;;5069671;28;20051;-72
2022/05/12 00:11:57;;;;;;;3.05;2.75;;;19.40;65.00;;;;;;5069637;28;20032;-72
2022/05/12 00:14:29;;;;;;;5.13;3.40;;;19.40;65.00;;;;;;5069252;28;20051;-72
2022/05/12 00:16:57;;;;;;;7.28;3.25;;;19.30;65.50;;;;;;5071261;28;20120;-72
2022/05/12 00:19:26;;;;;;;5.78;3.28;;;19.30;65.90;;;;;;5073310;28;20094;-71
2022/05/12 00:21:54;;;;;;;4.95;3.25;;;19.20;65.90;;;;;;5070605;28;20120;-71
2022/05/12 00:24:20;;;;;;;6.22;2.92;;;19.20;66.50;;;;;;5067216;28;20024;-71
2022/05/12 00:26:45;;;;;;;5.25;3.50;;;19.10;66.70;;;;;;5048692;28;20027;-71
2022/05/12 00:29:11;;;;;;;3.72;2.85;;;19.10;66.80;;;;;;5062839;28;20435;-71
2022/05/12 00:31:40;;;;;;;5.22;2.97;;;19.10;67.10;;;;;;5065471;28;20024;-72
2022/05/12 00:34:07;;;;;;;7.15;3.72;;;19.10;66.90;;;;;;5065071;28;20109;-72
2022/05/12 00:36:39;;;;;;;6.30;3.20;;;19.10;66.70;;;;;;5067542;28;20021;-72
2022/05/12 00:39:05;;;;;;;6.00;3.00;;;19.00;66.80;;;;;;5064504;28;20040;-72
2022/05/12 00:41:31;;;;;;;5.97;2.70;;;19.00;67.10;;;;;;5052036;28;20060;-72
2022/05/12 00:44:06;;;;;;;7.13;3.30;;;19.00;67.40;;;;;;5064758;28;20420;-72
2022/05/12 00:46:35;;;;;;;5.18;3.28;;;18.90;67.50;;;;;;5043966;28;20025;-72
2022/05/12 00:49:27;;;;;;;5.50;3.05;;;18.90;67.00;;;;;;5064148;28;20025;-72
2022/05/12 00:52:00;;;;;;;3.92;2.80;;;18.90;67.10;;;;;;5062523;28;20036;-72
2022/05/12 00:54:35;;;;;;;5.70;3.08;;;18.90;67.00;;;;;;5065916;28;20032;-72
2022/05/12 00:57:03;;;;;;;4.97;2.72;;;18.90;67.40;;;;;;5061917;28;20079;-72
2022/05/12 00:59:32;;;;;;;5.05;2.40;;;18.90;67.10;;;;;;5066686;28;20209;-72
2022/05/12 01:01:59;;;;;;;4.57;2.50;;;18.90;66.70;;;;;;5065620;28;20063;-72
2022/05/12 01:04:31;;;;;;;6.32;2.35;;;18.90;65.70;;;;;;5067179;28;20025;-72
2022/05/12 01:06:59;;;;;;;6.32;2.08;;;19.00;65.00;;;;;;5060155;28;20023;-72
2022/05/12 01:09:30;;;;;;;3.33;1.80;;;19.00;64.90;;;;;;5065736;28;20054;-72
2022/05/12 01:11:56;;;;;;;2.33;1.90;;;19.10;63.90;;;;;;5063791;28;20027;-72
2022/05/12 01:14:27;;;;;;;4.13;2.13;;;19.10;63.90;;;;;;5062464;28;20389;-72
2022/05/12 01:17:02;;;;;;;4.13;1.90;;;19.20;63.40;;;;;;5047845;28;20111;-72
2022/05/12 01:19:39;;;;;;;2.95;1.92;;;19.30;63.20;;;;;;5061005;28;20036;-72
2022/05/12 01:22:08;;;;;;;3.88;2.38;;;19.30;62.80;;;;;;5064744;28;20106;-72
2022/05/12 01:24:42;;;;;;;5.50;2.38;;;19.30;62.70;;;;;;5063208;28;20531;-72
2022/05/12 01:27:22;;;;;;;5.82;2.33;;;19.30;62.90;;;;;;5066969;28;20392;-72
2022/05/12 01:29:58;;;;;;;2.75;2.28;;;19.30;63.10;;;;;;5062803;28;20420;-72
2022/05/12 01:32:26;;;;;;;5.18;2.55;;;19.30;62.90;;;;;;5063011;28;20025;-72
2022/05/12 01:34:55;;;;;;;4.95;2.25;;;19.20;63.10;;;;;;5062585;28;20016;-72
2022/05/12 01:37:22;;;;;;;6.28;2.72;;;19.30;63.50;;;;;;5046109;28;20032;-72
2022/05/12 01:39:48;;;;;;;4.65;2.67;;;19.20;63.50;;;;;;5064376;28;20032;-72
2022/05/12 01:42:14;;;;;;;4.00;2.35;;;19.20;64.00;;;;;;5049034;28;20638;-72
2022/05/12 01:44:43;;;;;;;3.78;2.17;;;19.10;64.30;;;;;;5065726;28;20020;-72
2022/05/12 01:47:10;;;;;;;4.85;2.47;;;19.10;64.40;;;;;;5048913;28;20029;-72
2022/05/12 01:49:42;;;;;;;5.20;2.85;;;19.10;64.70;;;;;;5067389;28;20020;-72
2022/05/12 01:52:10;;;;;;;2.63;2.10;;;19.00;64.70;;;;;;5061619;28;20532;-72
2022/05/12 01:54:36;;;;;;;7.03;2.60;;;19.00;65.20;;;;;;5045159;28;20032;-71
2022/05/12 01:57:02;;;;;;;2.88;2.03;;;18.90;65.40;;;;;;5069553;28;20040;-71
2022/05/12 01:59:27;;;;;;;4.63;2.22;;;18.90;65.60;;;;;;5064406;28;20476;-72
2022/05/12 02:01:56;;;;;;;6.82;2.50;;;18.80;66.00;;;;;;5059796;28;20032;-72
2022/05/12 02:04:22;;;;;;;4.63;2.60;;;18.80;66.20;;;;;;5050844;28;20035;-72
2022/05/12 02:06:48;;;;;;;4.13;2.35;;;18.70;66.40;;;;;;5048319;28;20028;-72
2022/05/12 02:09:14;;;;;;;6.32;2.50;;;18.60;66.70;;;;;;5064839;28;20031;-72
2022/05/12 02:11:40;;;;;;;2.83;2.50;;;18.60;67.20;;;;;;5061574;28;20044;-72
2022/05/12 02:14:06;;;;;;;4.00;2.58;;;18.60;67.20;;;;;;5066050;28;20037;-72
2022/05/12 02:16:36;;;;;;;4.60;2.45;;;18.50;67.60;;;;;;5043690;28;20443;-72
2022/05/12 02:19:05;;;;;;;6.10;2.33;;;18.40;67.50;;;;;;5063342;28;20039;-72
2022/05/12 02:21:40;;;;;;;4.15;2.22;;;18.40;67.80;;;;;;5052928;28;20544;-72
2022/05/12 02:24:07;;;;;;;4.15;2.67;;;18.40;68.20;;;;;;5063902;28;20021;-72
2022/05/12 02:26:33;;;;;;;4.65;2.78;;;18.40;68.30;;;;;;5063485;28;20032;-71
2022/05/12 02:28:59;;;;;;;5.68;2.50;;;18.40;68.50;;;;;;5065382;28;20033;-71
2022/05/12 02:31:25;;;;;;;3.97;2.47;;;18.40;68.20;;;;;;5061369;28;20067;-71
2022/05/12 02:33:51;;;;;;;6.20;2.42;;;18.40;68.10;;;;;;5046975;28;20051;-71
2022/05/12 02:36:17;;;;;;;5.22;2.50;;;18.40;68.40;;;;;;5062568;28;20025;-72
2022/05/12 02:38:43;;;;;;;5.25;2.92;;;18.30;68.90;;;;;;5063865;28;20375;-72
2022/05/12 02:41:09;;;;;;;3.30;2.42;;;18.30;69.10;;;;;;5062656;28;20052;-72
2022/05/12 02:43:35;;;;;;;3.30;2.50;;;18.20;69.00;;;;;;5067072;28;20121;-72
2022/05/12 02:46:08;;;;;;;3.60;2.47;;;18.20;69.20;;;;;;5063816;28;20021;-72
2022/05/12 02:48:43;;;;;;;4.70;2.63;;;18.20;69.70;;;;;;5063327;28;20021;-73
2022/05/12 02:51:09;;;;;;;4.85;2.45;;;18.20;70.00;;;;;;5067123;28;20429;-72
2022/05/12 02:53:36;;;;;;;6.20;2.42;;;18.20;69.90;;;;;;5068336;28;20025;-72
2022/05/12 02:56:02;;;;;;;10.38;2.45;;;18.10;70.00;;;;;;5064691;28;20032;-72
2022/05/12 02:58:29;;;;;;;5.13;2.50;;;18.10;70.40;;;;;;5062278;28;20028;-73
2022/05/12 03:00:55;;;;;;;6.15;2.63;;;18.10;70.50;;;;;;5065766;28;20087;-72
2022/05/12 03:03:21;;;;;;;5.30;2.67;;;18.00;70.40;;;;;;5066157;28;20021;-73
2022/05/12 03:05:47;;;;;;;3.88;2.42;;;18.00;70.70;;;;;;5063986;28;20039;-73
2022/05/12 03:08:13;;;;;;;5.72;2.63;;;18.00;71.10;;;;;;5064170;28;20500;-73
2022/05/12 03:10:39;;;;;;;6.80;2.58;;;17.90;71.20;;;;;;5066864;28;20078;-72
2022/05/12 03:13:05;;;;;;;7.20;3.00;;;17.90;71.20;;;;;;5063311;28;20049;-72
2022/05/12 03:15:32;;;;;;;6.47;2.67;;;17.90;71.30;;;;;;5064995;28;20082;-72
2022/05/12 03:17:59;;;;;;;8.25;2.67;;;17.80;71.30;;;;;;5063881;28;20056;-72
2022/05/12 03:20:27;;;;;;;4.03;2.40;;;17.80;71.20;;;;;;5063552;28;20485;-72
2022/05/12 03:22:53;;;;;;;5.07;2.70;;;17.80;71.30;;;;;;5066800;28;20397;-72
2022/05/12 03:25:20;;;;;;;5.35;2.15;;;17.80;71.30;;;;;;5062831;28;20036;-72
2022/05/12 03:27:46;;;;;;;4.47;2.67;;;17.80;71.30;;;;;;5065632;28;20027;-72
2022/05/12 03:30:16;;;;;;;4.43;2.17;;;17.70;71.00;;;;;;5063119;28;20370;-73
2022/05/12 03:32:41;;;;;;;6.72;3.05;;;17.70;71.40;;;;;;5061100;28;20033;-72
2022/05/12 03:35:09;;;;;;;8.75;2.65;;;17.70;71.60;;;;;;5061138;28;20362;-73
2022/05/12 03:37:34;;;;;;;5.93;2.63;;;17.70;71.30;;;;;;5061342;28;20078;-72
2022/05/12 03:40:00;;;;;;;6.85;2.67;;;17.70;71.70;;;;;;5056824;28;20037;-72
2022/05/12 03:42:26;;;;;;;7.72;3.35;;;17.70;71.70;;;;;;5066019;28;20029;-72
2022/05/12 03:44:54;;;;;;;11.40;3.90;;;17.60;71.30;;;;;;5066312;28;20446;-72
2022/05/12 03:47:26;;;;;;;13.20;3.05;;;17.70;71.50;;;;;;5065578;28;20024;-72
2022/05/12 03:49:59;;;;;;;11.10;3.58;;;17.70;71.70;;;;;;5063406;28;20107;-72
2022/05/12 03:52:25;;;;;;;13.13;3.58;;;17.60;72.30;;;;;;5065869;28;20055;-73
2022/05/12 03:54:51;;;;;;;9.93;3.88;;;17.60;72.50;;;;;;5050958;28;20433;-73
2022/05/12 03:57:19;;;;;;;10.10;4.10;;;17.60;72.60;;;;;;5067073;28;20024;-72
2022/05/12 03:59:48;;;;;;;9.38;3.75;;;17.60;73.30;;;;;;5061962;28;20027;-72
2022/05/12 04:02:18;;;;;;;12.18;3.75;;;17.60;73.40;;;;;;5051856;28;20062;-71
2022/05/12 04:04:46;;;;;;;9.20;3.85;;;17.50;73.90;;;;;;5067127;28;20024;-72
2022/05/12 04:07:13;;;;;;;8.05;3.08;;;17.60;73.20;;;;;;5047800;28;20039;-71
2022/05/12 04:09:39;;;;;;;7.65;3.15;;;17.60;73.10;;;;;;5065722;28;20496;-71
2022/05/12 04:12:14;;;;;;;9.00;2.80;;;17.60;72.20;;;;;;5064303;28;20020;-71
2022/05/12 04:14:41;;;;;;;4.68;2.45;;;17.70;71.70;;;;;;5067919;28;20115;-71
2022/05/12 04:17:10;;;;;;;5.88;3.15;;;17.80;71.70;;;;;;5067550;28;20059;-71
2022/05/12 04:19:46;;;;;;;4.28;2.47;;;17.80;71.60;;;;;;5071431;28;20039;-71
2022/05/12 04:22:13;;;;;;;6.43;3.08;;;17.80;71.70;;;;;;5065066;28;20050;-72
2022/05/12 04:24:42;;;;;;;8.48;3.00;;;17.90;71.50;;;;;;5070389;28;20100;-71
2022/05/12 04:27:08;;;;;;;4.05;2.50;;;17.90;71.80;;;;;;5053517;28;20488;-70
2022/05/12 04:29:38;;;;;;;3.88;3.05;;;17.90;71.60;;;;;;5070936;28;20032;-71
2022/05/12 04:32:13;;;;;;;5.57;3.20;;;17.90;72.00;;;;;;5067736;28;20143;-73
2022/05/12 04:37:30;;;;;;;10.23;3.55;;;17.90;71.90;;;;;;5067042;28;20051;-65
2022/05/12 04:40:05;;;;;;;5.75;2.67;;;18.00;71.80;;;;;;5066347;28;20032;-65
2022/05/12 04:42:34;;;;;;;8.00;3.50;;;18.10;72.70;;;;;;5071651;28;20492;-66
2022/05/12 04:45:08;;;;;;;5.50;2.88;;;18.10;72.80;;;;;;5063023;28;20017;-63
2022/05/12 04:47:35;;;;;;;6.70;3.88;;;18.20;72.80;;;;;;5066712;28;20040;-73
2022/05/12 04:50:07;;;;;;;8.95;3.33;;;18.20;72.90;;;;;;5063078;28;20024;-71
2022/05/12 04:52:36;;;;;;;4.50;3.00;;;18.30;72.70;;;;;;5066055;28;20559;-71
2022/05/12 04:55:05;;;;;;;8.07;3.50;;;18.40;72.50;;;;;;5068458;28;20028;-70
2022/05/12 04:57:38;;;;;;;5.30;3.03;;;18.60;71.80;;;;;;5068273;28;20036;-70
2022/05/12 05:00:20;;;;;;;3.95;2.60;;;18.80;71.20;;;;;;5067874;28;20032;-71
2022/05/12 05:02:46;;;;;;;8.95;2.95;;;18.90;71.50;;;;;;5051134;28;20040;-71
2022/05/12 05:05:12;;;;;;;7.28;3.58;;;18.90;70.60;;;;;;5050808;28;20504;-71
2022/05/12 05:07:38;;;;;;;5.82;2.97;;;19.10;70.90;;;;;;5072572;28;20156;-71
2022/05/12 05:10:09;;;;;;;6.43;2.80;;;19.10;70.30;;;;;;5056266;28;20024;-71
2022/05/12 05:12:36;;;;;;;3.95;2.90;;;19.20;70.00;;;;;;5062278;28;20483;-70
2022/05/12 05:15:06;;;;;;;5.13;2.63;;;19.20;70.00;;;;;;5068173;28;20024;-71
2022/05/12 05:17:38;;;;;;;5.28;2.92;;;19.30;69.60;;;;;;5065344;28;20025;-72
2022/05/12 05:20:11;;;;;;;8.20;2.58;;;19.40;69.50;;;;;;5069113;28;20036;-72
2022/05/12 05:22:37;;;;;;;6.50;3.25;;;19.60;69.10;;;;;;5062924;28;20044;-67
2022/05/12 05:25:06;;;;;;;9.07;3.08;;;19.70;70.10;;;;;;5064925;28;20454;-71
2022/05/12 05:27:38;;;;;;;6.35;2.80;;;19.70;69.50;;;;;;5066492;28;20043;-70
2022/05/12 05:30:06;;;;;;;5.38;2.88;;;19.70;69.40;;;;;;5064210;28;20020;-71
2022/05/12 05:32:38;;;;;;;5.65;2.83;;;19.70;69.60;;;;;;5051631;28;20060;-70
2022/05/12 05:35:05;;;;;;;4.38;2.58;;;19.70;69.70;;;;;;5060800;28;20060;-70
2022/05/12 05:37:31;;;;;;;6.82;2.80;;;19.80;69.70;;;;;;5067372;28;20039;-66
2022/05/12 05:40:00;;;;;;;9.43;3.13;;;19.80;70.10;;;;;;5061997;28;20037;-70
2022/05/12 05:42:25;;;;;;;12.02;3.42;;;19.90;70.10;;;;;;5062161;28;20369;-70
2022/05/12 05:44:54;;;;;;;7.88;3.17;;;20.00;69.60;;;;;;5067313;28;20020;-70
2022/05/12 05:47:23;;;;;;;5.93;2.13;;;20.00;69.40;;;;;;5065412;28;20053;-70
2022/05/12 05:49:49;;;;;;;6.03;2.33;;;20.00;69.50;;;;;;5063352;28;20025;-70
2022/05/12 05:54:59;;;;;;;9.63;3.22;;;20.00;70.40;;;;;;5065128;28;20060;-70
2022/05/12 05:57:30;;;;;;;8.18;2.92;;;19.90;70.90;;;;;;5066994;28;20460;-70
2022/05/12 06:00:04;;;;;;;6.32;3.50;;;19.90;71.30;;;;;;5063761;28;20120;-69
2022/05/12 06:02:39;;;;;;;7.47;3.08;;;20.00;71.30;;;;;;5066700;28;20396;-69
2022/05/12 06:05:06;;;;;;;8.43;3.80;;;20.10;71.10;;;;;;5068083;28;20078;-70
2022/05/12 06:07:34;;;;;;;4.70;2.90;;;20.20;71.10;;;;;;5065154;28;20061;-70
2022/05/12 06:10:05;;;;;;;6.53;2.70;;;20.20;70.70;;;;;;5063234;28;20025;-70
2022/05/12 06:12:31;;;;;;;7.88;3.47;;;20.30;70.30;;;;;;5058360;28;20028;-70
2022/05/12 06:15:03;;;;;;;4.70;2.53;;;20.40;69.90;;;;;;5061633;28;20025;-70
2022/05/12 06:17:35;;;;;;;7.60;2.78;;;20.50;69.50;;;;;;5066644;28;20035;-70
2022/05/12 06:20:08;;;;;;;7.78;2.97;;;20.50;69.30;;;;;;5058716;28;20025;-70
2022/05/12 06:22:38;;;;;;;6.70;2.72;;;20.60;69.00;;;;;;5065310;28;20024;-70
2022/05/12 06:25:14;;;;;;;4.82;2.80;;;20.70;69.30;;;;;;5062022;28;20465;-71
2022/05/12 06:27:39;;;;;;;8.23;3.00;;;20.80;68.90;;;;;;5063473;28;20016;-70
2022/05/12 06:30:11;;;;;;;7.18;3.00;;;20.90;68.80;;;;;;5065328;28;20508;-71
2022/05/12 06:32:57;;;;;;;7.07;2.92;;;21.00;69.10;;;;;;5066195;28;20437;-71
2022/05/12 06:35:25;;;;;;;5.90;2.90;;;21.10;69.00;;;;;;5064639;28;20052;-70
2022/05/12 06:37:51;;;;;;;4.50;2.40;;;21.20;68.90;;;;;;5046753;28;20113;-70
2022/05/12 06:40:18;;;;;;;8.27;2.97;;;21.30;68.20;;;;;;5045929;28;20086;-70
2022/05/12 06:42:51;;;;;;;5.00;2.50;;;21.40;68.10;;;;;;5065293;28;20120;-71
2022/05/12 06:45:19;;;;;;;48.65;5.97;;;21.50;68.20;;;;;;5045002;28;20028;-71
2022/05/12 06:47:50;;;;;;;10.45;2.72;;;21.50;68.10;;;;;;5058794;28;20024;-71
2022/05/12 06:50:20;;;;;;;5.50;3.22;;;21.60;68.40;;;;;;5059201;28;20021;-71
2022/05/12 06:52:46;;;;;;;8.85;3.05;;;21.70;68.50;;;;;;5061732;28;20040;-70
2022/05/12 06:55:12;;;;;;;5.45;2.22;;;21.70;68.60;;;;;;5043543;28;20036;-71
2022/05/12 06:57:38;;;;;;;4.57;2.50;;;21.90;68.50;;;;;;5063645;28;20548;-71
2022/05/12 07:00:06;;;;;;;5.75;2.92;;;21.90;68.20;;;;;;5061124;28;20029;-70
2022/05/12 07:02:38;;;;;;;4.25;2.33;;;22.00;67.80;;;;;;5059606;28;20071;-70
2022/05/12 07:05:08;;;;;;;7.45;3.25;;;22.00;67.90;;;;;;5064861;28;20504;-70
2022/05/12 07:07:37;;;;;;;4.13;2.42;;;21.90;68.20;;;;;;5065467;28;20103;-70
2022/05/12 07:10:05;;;;;;;4.53;2.88;;;21.90;68.50;;;;;;5064098;28;20091;-70
2022/05/12 07:12:30;;;;;;;3.60;2.55;;;21.80;68.80;;;;;;5061550;28;20036;-71
2022/05/12 07:14:56;;;;;;;5.38;3.05;;;21.70;69.00;;;;;;5062357;28;20427;-71
2022/05/12 07:17:23;;;;;;;6.15;3.63;;;21.70;68.90;;;;;;5060504;28;20025;-71
2022/05/12 07:19:49;;;;;;;6.00;2.97;;;21.80;69.30;;;;;;5046095;28;20029;-71
2022/05/12 07:27:44;;;;;;;7.43;2.53;;;21.90;69.40;;;;;;5072344;28;20070;-70
2022/05/12 07:30:11;;;;;;;6.95;3.10;;;21.90;69.70;;;;;;5054048;28;20442;-69
2022/05/12 07:32:37;;;;;;;4.50;2.85;;;21.90;69.70;;;;;;5049112;28;20544;-69
2022/05/12 07:35:05;;;;;;;11.43;3.00;;;22.00;70.00;;;;;;5055425;28;20053;-69
2022/05/12 07:37:31;;;;;;;7.20;3.00;;;22.00;70.30;;;;;;5056222;28;20025;-69
2022/05/12 07:39:56;;;;;;;4.28;2.78;;;22.10;69.90;;;;;;5058473;28;20094;-69
2022/05/12 07:42:22;;;;;;;5.75;2.60;;;22.30;69.60;;;;;;5064288;28;20032;-69
2022/05/12 07:44:47;;;;;;;5.95;2.60;;;22.40;69.10;;;;;;5074139;28;20445;-69
2022/05/12 07:47:13;;;;;;;6.93;2.67;;;22.40;69.10;;;;;;5068208;28;20017;-69
2022/05/12 07:49:43;;;;;;;4.85;2.20;;;22.50;69.00;;;;;;5040940;28;20021;-69
2022/05/12 07:52:12;;;;;;;8.90;3.03;;;22.50;68.90;;;;;;5055685;28;20037;-69
2022/05/12 07:54:38;;;;;;;4.13;2.72;;;22.60;68.60;;;;;;5068045;28;20029;-69
2022/05/12 07:57:04;;;;;;;10.25;2.83;;;22.60;68.60;;;;;;5075958;28;20032;-69
2022/05/12 07:59:31;;;;;;;5.15;2.78;;;22.70;68.50;;;;;;5075669;28;20488;-70
2022/05/12 08:01:58;;;;;;;4.07;2.63;;;22.70;68.20;;;;;;5074294;28;20036;-69
2022/05/12 08:04:25;;;;;;;7.82;3.15;;;22.70;68.00;;;;;;5075359;28;20096;-69
2022/05/12 08:06:51;;;;;;;5.50;3.05;;;22.80;68.10;;;;;;5076036;28;20027;-69
2022/05/12 08:09:17;;;;;;;9.13;2.90;;;22.90;67.90;;;;;;5059122;28;20096;-69
2022/05/12 08:11:42;;;;;;;8.35;2.83;;;22.90;67.50;;;;;;5055160;28;20107;-69
2022/05/12 08:14:11;;;;;;;6.60;2.67;;;22.90;67.30;;;;;;5059885;28;20058;-69
2022/05/12 08:16:40;;;;;;;5.25;3.08;;;23.10;67.40;;;;;;5075358;28;20048;-69
2022/05/12 08:19:06;;;;;;;8.80;2.97;;;23.10;67.10;;;;;;5063310;28;20053;-70
2022/05/12 08:21:32;;;;;;;6.30;2.95;;;23.20;67.10;;;;;;5054947;28;20067;-69
2022/05/12 08:23:57;;;;;;;3.97;2.42;;;23.20;67.20;;;;;;5058127;28;20024;-69
2022/05/12 08:26:23;;;;;;;4.47;2.60;;;23.40;67.00;;;;;;5074127;28;20025;-69
2022/05/12 08:28:50;;;;;;;6.00;3.15;;;23.70;66.50;;;;;;5074028;28;20028;-69
2022/05/12 08:31:20;;;;;;;4.47;2.63;;;23.90;65.70;;;;;;5075090;28;20063;-69
2022/05/12 08:33:45;;;;;;;7.20;2.83;;;24.00;65.20;;;;;;5049983;28;20528;-70
2022/05/12 08:36:11;;;;;;;4.20;2.75;;;24.10;64.90;;;;;;5067230;28;20021;-70
2022/05/12 08:38:40;;;;;;;5.70;2.80;;;24.20;65.10;;;;;;5065331;28;20039;-70
2022/05/12 08:41:16;;;;;;;7.00;2.72;;;24.10;65.00;;;;;;5074902;28;20481;-70
2022/05/12 08:43:44;;;;;;;7.00;2.67;;;24.10;65.20;;;;;;5065890;28;20024;-70
2022/05/12 08:46:15;;;;;;;7.75;2.78;;;24.10;65.70;;;;;;5063423;28;20397;-71
2022/05/12 08:48:43;;;;;;;4.63;2.72;;;24.10;66.00;;;;;;5071581;28;20021;-69
2022/05/12 08:51:19;;;;;;;4.40;3.05;;;24.10;66.90;;;;;;5054944;28;20036;-69
2022/05/12 08:53:58;;;;;;;9.10;3.25;;;24.20;67.60;;;;;;5056614;28;20025;-70
2022/05/12 08:56:25;;;;;;;7.03;3.10;;;24.20;67.60;;;;;;5064363;28;20059;-70
2022/05/12 08:58:55;;;;;;;5.88;3.25;;;24.10;66.00;;;;;;5069772;28;20032;-70
2022/05/12 09:01:38;;;;;;;8.65;3.15;;;24.00;66.90;;;;;;5067340;28;20453;-70
2022/05/12 09:04:48;;;;;;;4.55;2.95;;;24.00;67.00;;;;;;5051717;28;20024;-69
2022/05/12 09:07:34;;;;;;;4.25;3.03;;;24.00;67.10;;;;;;5072212;28;20024;-68
2022/05/12 09:10:00;;;;;;;6.25;2.83;;;24.00;67.10;;;;;;5073354;28;20143;-68
2022/05/12 09:12:51;;;;;;;6.50;3.28;;;23.80;66.20;;;;;;5071872;28;20068;-69
2022/05/12 09:15:34;;;;;;;7.45;3.03;;;23.80;66.90;;;;;;5007551;28;20044;-67
2022/05/12 09:18:02;;;;;;;4.88;3.55;;;23.90;66.80;;;;;;5050885;28;20028;-68
2022/05/12 09:20:31;;;;;;;4.47;3.40;;;24.00;66.70;;;;;;5064925;28;20053;-69
2022/05/12 09:22:58;;;;;;;8.18;3.10;;;24.10;65.70;;;;;;5069410;28;20059;-69
2022/05/12 09:25:31;;;;;;;6.22;2.85;;;24.10;66.20;;;;;;5064640;28;20021;-69
2022/05/12 09:28:00;;;;;;;4.80;3.30;;;24.10;65.60;;;;;;5064871;28;20064;-70
2022/05/12 09:30:35;;;;;;;4.75;3.72;;;24.10;65.30;;;;;;5067388;28;20036;-69
2022/05/12 09:33:01;;;;;;;4.30;3.22;;;24.20;66.10;;;;;;5055154;28;20024;-70
2022/05/12 09:35:30;;;;;;;4.35;2.90;;;24.20;65.70;;;;;;5069623;28;20056;-68
2022/05/12 09:37:56;;;;;;;7.00;3.10;;;24.30;65.90;;;;;;5051428;28;20028;-70
2022/05/12 09:40:31;;;;;;;4.93;3.00;;;24.30;65.40;;;;;;5065812;28;20358;-70
2022/05/12 09:43:00;;;;;;;7.35;3.00;;;24.30;65.40;;;;;;5049949;28;20025;-70
2022/05/12 09:45:34;;;;;;;9.20;3.45;;;24.40;65.10;;;;;;5066969;28;20109;-69
2022/05/12 09:48:25;;;;;;;6.05;3.60;;;24.30;64.70;;;;;;5062383;28;20031;-69
2022/05/12 09:50:52;;;;;;;5.43;3.60;;;24.40;66.00;;;;;;5065617;28;20435;-70
2022/05/12 09:53:29;;;;;;;7.72;3.90;;;24.50;64.80;;;;;;5070985;28;20078;-69
2022/05/12 09:56:33;;;;;;;4.95;3.42;;;24.50;65.20;;;;;;5072539;28;20029;-71
2022/05/12 09:59:07;;;;;;;7.32;3.47;;;24.60;65.30;;;;;;5063754;28;20370;-71
2022/05/12 10:01:35;;;;;;;4.25;3.25;;;24.70;64.70;;;;;;5068781;28;20497;-68
2022/05/12 10:10:15;;;;;;;9.18;4.10;;;24.90;64.80;;;;;;5068293;28;20031;-70
2022/05/12 10:12:54;;;;;;;7.50;3.70;;;24.90;64.50;;;;;;5065295;28;20063;-69
2022/05/12 10:15:33;;;;;;;7.25;3.80;;;24.90;64.00;;;;;;5049641;28;20106;-71
2022/05/12 10:18:26;;;;;;;9.63;4.22;;;25.00;63.80;;;;;;5051789;28;20039;-68
2022/05/12 10:20:55;;;;;;;10.00;5.10;;;25.00;63.60;;;;;;5071468;28;20161;-71
2022/05/12 10:23:36;;;;;;;5.82;4.05;;;25.00;64.20;;;;;;5060145;28;20312;-66
2022/05/12 10:26:28;;;;;;;5.90;3.88;;;25.00;63.80;;;;;;5064198;28;20020;-71
2022/05/12 10:29:20;;;;;;;12.68;3.70;;;25.00;63.30;;;;;;5061624;28;20019;-71
2022/05/12 10:31:58;;;;;;;9.57;3.92;;;24.90;63.60;;;;;;5061825;28;20033;-74
2022/05/12 10:34:38;;;;;;;11.32;4.50;;;25.00;63.90;;;;;;5048935;28;20035;-68
2022/05/12 10:37:19;;;;;;;7.75;4.55;;;25.00;64.40;;;;;;5067945;28;20462;-71
2022/05/12 10:39:52;;;;;;;6.93;4.45;;;25.10;64.40;;;;;;5065306;28;20024;-70
2022/05/12 10:42:26;;;;;;;8.50;4.40;;;25.20;64.80;;;;;;5061060;28;20017;-69
2022/05/12 10:45:07;;;;;;;5.78;4.20;;;25.30;64.60;;;;;;5062202;28;20111;-69
2022/05/12 10:48:17;;;;;;;5.85;3.80;;;25.30;64.00;;;;;;5060360;28;20063;-68
2022/05/12 10:51:02;;;;;;;8.32;4.28;;;25.10;63.90;;;;;;5048375;28;20029;-70
2022/05/12 10:53:39;;;;;;;21.05;4.28;;;24.80;64.70;;;;;;5067423;28;20028;-69
2022/05/12 10:56:31;;;;;;;7.32;4.25;;;24.70;65.00;;;;;;5063535;28;20056;-69
2022/05/12 10:59:18;;;;;;;6.53;3.72;;;24.60;65.80;;;;;;5046666;28;20111;-67
2022/05/12 11:02:20;;;;;;;6.10;3.78;;;24.50;66.10;;;;;;5061223;28;20613;-68
2022/05/12 11:04:51;;;;;;;11.40;4.38;;;24.50;66.40;;;;;;4985735;28;20038;-68
2022/05/12 11:07:28;;;;;;;8.88;4.18;;;24.60;65.80;;;;;;5045076;28;20032;-67
2022/05/12 11:10:17;;;;;;;6.55;4.10;;;24.70;64.90;;;;;;5060415;28;20389;-67
2022/05/12 11:12:47;;;;;;;8.20;4.05;;;24.80;65.10;;;;;;5061421;28;20032;-70
2022/05/12 11:15:22;;;;;;;10.00;4.28;;;24.90;65.40;;;;;;5065410;28;20389;-69
2022/05/12 11:17:59;;;;;;;6.60;4.55;;;24.90;65.20;;;;;;5061770;28;20028;-68
2022/05/12 11:20:36;;;;;;;7.55;4.00;;;24.90;66.80;;;;;;5053325;28;20497;-68
2022/05/12 11:23:20;;;;;;;8.70;4.20;;;24.90;67.60;;;;;;5058243;28;20421;-68
2022/05/12 11:26:19;;;;;;;7.65;3.78;;;25.00;65.50;;;;;;5055020;28;20035;-67
2022/05/12 11:32:21;;;;;;;6.78;3.65;;;25.00;65.80;;;;;;5055654;28;20505;-70
2022/05/12 11:34:50;;;;;;;5.93;3.70;;;25.00;65.50;;;;;;5060229;28;20039;-70
2022/05/12 11:37:53;;;;;;;6.85;3.75;;;24.90;65.80;;;;;;5061205;28;20422;-69
2022/05/12 11:40:43;;;;;;;12.60;4.35;;;25.00;66.30;;;;;;5059314;28;20435;-72
2022/05/12 11:46:58;;;;;;;9.10;4.50;;;25.10;65.20;;;;;;5061969;28;20063;-72
2022/05/12 11:49:48;;;;;;;7.95;4.13;;;25.30;64.50;;;;;;5062062;28;20035;-70
2022/05/12 11:52:35;;;;;;;9.38;3.97;;;25.70;64.90;;;;;;5061025;28;20021;-68
2022/05/12 11:55:06;;;;;;;6.60;4.32;;;25.90;64.10;;;;;;5064414;28;20039;-67
2022/05/12 11:57:41;;;;;;;6.10;4.53;;;26.00;63.50;;;;;;5060472;28;20059;-70
2022/05/12 12:00:11;;;;;;;10.77;3.97;;;26.10;62.60;;;;;;5040036;28;20037;-69
2022/05/12 12:02:41;;;;;;;6.30;3.90;;;26.10;62.00;;;;;;5061197;28;20028;-68
2022/05/12 12:05:31;;;;;;;5.53;4.00;;;26.20;62.10;;;;;;5059910;28;20024;-68
2022/05/12 12:07:56;;;;;;;9.10;4.57;;;26.40;62.40;;;;;;5047136;28;21934;-67
2022/05/12 12:10:35;;;;;;;6.68;4.20;;;26.80;61.50;;;;;;5064377;28;20967;-74
2022/05/12 12:13:16;;;;;;;5.15;4.00;;;26.90;59.30;;;;;;5046940;28;20029;-73
2022/05/12 12:16:04;;;;;;;5.70;4.05;;;27.00;59.80;;;;;;5040709;28;20032;-73
2022/05/12 12:18:39;;;;;;;9.75;4.30;;;27.20;59.90;;;;;;5065465;28;20027;-74
2022/05/12 12:21:44;;;;;;;7.80;4.28;;;27.40;58.90;;;;;;5064812;28;20032;-73
2022/05/12 12:24:18;;;;;;;6.18;4.40;;;27.60;57.70;;;;;;5065137;28;20404;-73
2022/05/12 12:26:55;;;;;;;5.20;4.07;;;27.70;54.70;;;;;;5045876;28;20020;-73
2022/05/12 12:29:41;;;;;;;7.32;4.32;;;27.70;54.90;;;;;;5062486;28;20095;-69
2022/05/12 12:32:25;;;;;;;5.53;4.00;;;27.60;56.10;;;;;;5042841;28;20062;-69
2022/05/12 12:34:54;;;;;;;5.05;3.75;;;27.70;57.40;;;;;;5063212;28;20028;-70
2022/05/12 12:37:47;;;;;;;5.13;4.07;;;27.80;58.20;;;;;;5050800;28;20319;-69
2022/05/12 12:40:43;;;;;;;11.48;4.28;;;27.90;57.50;;;;;;5067632;28;20032;-69
2022/05/12 12:43:31;;;;;;;6.88;4.30;;;27.80;56.70;;;;;;5034847;28;20044;-69
2022/05/12 12:45:57;;;;;;;6.30;4.03;;;27.50;56.40;;;;;;5064141;28;20055;-69
2022/05/12 12:48:35;;;;;;;9.75;4.63;;;27.30;57.40;;;;;;5046228;28;20037;-69
2022/05/12 12:51:01;;;;;;;7.05;4.13;;;27.10;57.90;;;;;;5061837;28;20035;-69
2022/05/12 12:56:31;;;;;;;8.55;4.53;;;27.00;58.30;;;;;;5061781;28;20032;-69
2022/05/12 12:59:04;;;;;;;6.77;3.73;;;27.00;59.60;;;;;;5067844;28;20033;-69
2022/05/12 13:02:00;;;;;;;9.95;4.82;;;27.00;57.30;;;;;;5062700;28;20043;-69
2022/05/12 13:04:36;;;;;;;7.75;4.68;;;27.00;59.50;;;;;;5046205;28;20037;-67
2022/05/12 13:07:07;;;;;;;9.65;4.35;;;27.10;59.00;;;;;;5048275;28;20025;-67
2022/05/12 13:09:39;;;;;;;4.43;3.70;;;27.20;57.30;;;;;;5067062;28;20025;-67
2022/05/12 13:12:19;;;;;;;5.68;3.78;;;27.30;57.80;;;;;;5062698;28;20043;-67
2022/05/12 13:14:47;;;;;;;8.82;4.45;;;27.30;57.00;;;;;;5065108;28;20028;-67
2022/05/12 13:17:45;;;;;;;7.65;4.65;;;27.30;57.00;;;;;;5065842;28;20550;-68
2022/05/12 13:20:18;;;;;;;6.18;3.83;;;27.40;55.70;;;;;;5068274;28;20025;-68
2022/05/12 13:22:48;;;;;;;5.88;3.45;;;27.40;56.20;;;;;;5068680;28;20051;-68
2022/05/12 13:25:20;;;;;;;9.70;3.95;;;27.40;55.20;;;;;;5059912;28;20037;-68
2022/05/12 13:27:47;;;;;;;6.93;4.30;;;27.30;55.50;;;;;;5065353;28;20021;-67
2022/05/12 13:30:19;;;;;;;6.50;3.83;;;27.40;55.60;;;;;;5068482;28;20153;-68
2022/05/12 13:32:53;;;;;;;8.55;4.25;;;27.40;56.10;;;;;;5068668;28;20077;-69
2022/05/12 13:35:23;;;;;;;6.65;3.60;;;27.40;55.50;;;;;;5069271;28;20036;-68
2022/05/12 13:37:52;;;;;;;7.55;4.22;;;27.50;56.60;;;;;;5066381;28;20032;-69